createdAt,value
2017-11-24T00:02:13.991Z,3.09
2017-11-24T00:04:43.670Z,3.10
2017-11-24T00:07:13.107Z,3.09
2017-11-24T00:09:42.810Z,3.08
2017-11-24T00:12:10.858Z,3.07
2017-11-24T00:14:38.761Z,3.06
2017-11-24T00:17:06.733Z,3.04
2017-11-24T00:19:35.114Z,3.02
2017-11-24T00:22:03.084Z,3.00
2017-11-24T00:24:31.159Z,3.00
2017-11-24T00:26:59.081Z,2.99
2017-11-24T00:29:27.362Z,2.99
2017-11-24T00:31:55.493Z,2.99
2017-11-24T00:34:23.578Z,2.99
2017-11-24T00:36:51.462Z,2.99
2017-11-24T00:39:20.083Z,2.97
2017-11-24T00:41:48.102Z,2.97
2017-11-24T00:44:24.119Z,2.97
2017-11-24T00:46:53.055Z,2.96
2017-11-24T00:49:27.669Z,2.94
2017-11-24T00:51:57.308Z,2.93
2017-11-24T00:54:25.256Z,2.91
2017-11-24T00:56:53.335Z,2.88
2017-11-24T00:59:21.309Z,2.84
2017-11-24T01:01:56.241Z,2.81
2017-11-24T01:04:25.708Z,2.80
2017-11-24T01:06:53.621Z,2.80
2017-11-24T01:09:21.583Z,2.81
2017-11-24T01:11:49.552Z,2.79
2017-11-24T01:14:17.430Z,2.78
2017-11-24T01:16:45.397Z,2.78
2017-11-24T01:19:13.997Z,2.74
2017-11-24T01:21:42.905Z,2.71
2017-11-24T01:24:17.505Z,2.68
2017-11-24T01:26:46.081Z,2.62
2017-11-24T01:29:15.831Z,2.59
2017-11-24T01:31:47.045Z,2.59
2017-11-24T01:34:14.923Z,2.61
2017-11-24T01:36:44.517Z,2.61
2017-11-24T01:39:12.503Z,2.61
2017-11-24T01:41:40.478Z,2.60
2017-11-24T01:44:08.411Z,2.59
2017-11-24T01:46:36.419Z,2.60
2017-11-24T01:49:04.391Z,2.55
2017-11-24T01:51:33.987Z,2.53
2017-11-24T01:54:01.969Z,2.52
2017-11-24T01:56:36.085Z,2.52
2017-11-24T01:59:04.059Z,2.51
2017-11-24T02:01:31.997Z,2.51
2017-11-24T02:04:00.005Z,2.51
2017-11-24T02:06:29.574Z,2.51
2017-11-24T02:08:57.586Z,2.52
2017-11-24T02:11:25.556Z,2.51
2017-11-24T02:13:53.526Z,2.45
2017-11-24T02:16:21.878Z,2.39
2017-11-24T02:18:49.986Z,2.42
2017-11-24T02:21:21.132Z,2.46
2017-11-24T02:23:50.697Z,2.50
2017-11-24T02:26:18.600Z,2.50
2017-11-24T02:28:47.327Z,2.50
2017-11-24T02:31:16.193Z,2.50
2017-11-24T02:33:44.079Z,2.50
2017-11-24T02:36:13.259Z,2.49
2017-11-24T02:38:43.643Z,2.55
2017-11-24T02:41:17.853Z,2.59
2017-11-24T02:43:46.086Z,2.60
2017-11-24T02:46:14.061Z,2.60
2017-11-24T02:48:42.038Z,2.61
2017-11-24T02:53:42.988Z,2.62
2017-11-24T02:56:11.063Z,2.61
2017-11-24T02:58:39.042Z,2.57
2017-11-24T03:01:09.060Z,2.54
2017-11-24T03:03:36.928Z,2.53
2017-11-24T03:06:05.018Z,2.52
2017-11-24T03:08:34.929Z,2.52
2017-11-24T03:11:02.786Z,2.53
2017-11-24T03:13:30.678Z,2.53
2017-11-24T03:15:58.528Z,2.54
2017-11-24T03:18:26.497Z,2.53
2017-11-24T03:20:54.570Z,2.51
2017-11-24T03:23:22.442Z,2.46
2017-11-24T03:25:50.419Z,2.48
2017-11-24T03:28:19.972Z,2.52
2017-11-24T03:30:47.903Z,2.49
2017-11-24T03:33:15.760Z,2.50
2017-11-24T03:35:43.633Z,2.52
2017-11-24T03:38:12.850Z,2.57
2017-11-24T03:40:40.850Z,2.60
2017-11-24T03:43:08.789Z,2.61
2017-11-24T03:45:36.763Z,2.61
2017-11-24T03:48:05.546Z,2.66
2017-11-24T03:50:33.423Z,2.71
2017-11-24T03:53:01.358Z,2.75
2017-11-24T03:55:29.629Z,2.80
2017-11-24T03:57:59.184Z,2.82
2017-11-24T04:00:27.148Z,2.83
2017-11-24T04:02:55.122Z,2.84
2017-11-24T04:05:22.885Z,2.85
2017-11-24T04:07:50.760Z,2.88
2017-11-24T04:10:18.737Z,2.91
2017-11-24T04:12:46.602Z,2.94
2017-11-24T04:15:21.234Z,2.91
2017-11-24T04:17:52.990Z,2.84
2017-11-24T04:20:21.062Z,2.82
2017-11-24T04:22:51.001Z,2.83
2017-11-24T04:25:21.412Z,2.85
2017-11-24T04:27:49.278Z,2.86
2017-11-24T04:30:30.041Z,2.88
2017-11-24T04:32:58.521Z,2.86
2017-11-24T04:35:28.898Z,2.86
2017-11-24T04:37:56.922Z,2.88
2017-11-24T04:40:26.512Z,2.89
2017-11-24T04:42:54.402Z,2.92
2017-11-24T04:45:23.300Z,2.96
2017-11-24T04:47:51.474Z,3.01
2017-11-24T04:50:19.333Z,3.06
2017-11-24T04:52:47.222Z,3.08
2017-11-24T04:55:15.082Z,3.11
2017-11-24T04:57:43.054Z,3.15
2017-11-24T05:00:10.927Z,3.19
2017-11-24T05:02:41.520Z,3.23
2017-11-24T05:05:13.629Z,3.27
2017-11-24T05:07:42.422Z,3.32
2017-11-24T05:10:10.394Z,3.34
2017-11-24T05:12:40.873Z,3.38
2017-11-24T05:15:12.336Z,3.39
2017-11-24T05:17:41.166Z,3.40
2017-11-24T05:20:17.133Z,3.41
2017-11-24T05:22:44.973Z,3.41
2017-11-24T05:25:13.066Z,3.43
2017-11-24T05:27:40.840Z,3.44
2017-11-24T05:30:21.145Z,3.44
2017-11-24T05:32:49.049Z,3.45
2017-11-24T05:35:17.037Z,3.48
2017-11-24T05:37:45.701Z,3.48
2017-11-24T05:40:15.304Z,3.50
2017-11-24T05:42:49.026Z,3.52
2017-11-24T05:45:19.340Z,3.50
2017-11-24T05:47:47.666Z,3.48
2017-11-24T05:50:15.458Z,3.48
2017-11-24T05:52:43.197Z,3.48
2017-11-24T05:55:11.150Z,3.48
2017-11-24T05:57:49.254Z,3.46
2017-11-24T06:00:17.130Z,3.46
2017-11-24T06:02:45.106Z,3.46
2017-11-24T06:05:13.168Z,3.47
2017-11-24T06:07:41.348Z,3.47
2017-11-24T06:10:11.071Z,3.46
2017-11-24T06:12:41.621Z,3.43
2017-11-24T06:15:11.651Z,3.41
2017-11-24T06:17:39.551Z,3.37
2017-11-24T09:29:18.786Z,8.17
2017-11-24T09:31:46.565Z,8.33
2017-11-24T09:34:14.184Z,8.40
2017-11-24T09:36:45.296Z,8.52
2017-11-24T09:39:14.230Z,8.67
2017-11-24T09:41:41.860Z,8.72
2017-11-24T09:44:15.585Z,8.79
2017-11-24T09:46:46.858Z,8.85
2017-11-24T09:49:14.478Z,8.92
2017-11-24T09:51:42.057Z,8.96
2017-11-24T09:54:09.689Z,8.99
2017-11-24T09:56:37.291Z,9.13
2017-11-24T10:01:55.345Z,9.32
2017-11-24T10:04:23.003Z,9.36
2017-11-24T10:06:50.592Z,9.44
2017-11-24T10:09:18.187Z,9.53
2017-11-24T10:11:46.282Z,9.55
2017-11-24T10:14:16.524Z,9.53
2017-11-24T10:16:44.150Z,9.52
2017-11-24T10:19:14.784Z,9.46
2017-11-24T10:21:48.131Z,9.48
2017-11-24T10:24:15.715Z,9.54
2017-11-24T10:26:43.345Z,9.60
2017-11-24T10:29:10.944Z,9.66
2017-11-24T10:31:38.579Z,9.72
2017-11-24T10:34:06.206Z,9.75
2017-11-24T10:36:33.841Z,9.73
2017-11-24T10:39:01.457Z,9.83
2017-11-24T10:41:33.189Z,9.90
2017-11-24T10:44:00.806Z,9.96
2017-11-24T10:46:28.456Z,10.01
2017-11-24T10:48:56.146Z,10.07
2017-11-24T10:51:23.733Z,10.18
2017-11-24T10:53:51.353Z,10.22
2017-11-24T10:56:18.955Z,10.29
2017-11-24T10:58:46.583Z,10.45
2017-11-24T11:01:14.204Z,10.50
2017-11-24T11:03:41.838Z,10.52
2017-11-24T11:06:12.229Z,10.56
2017-11-24T11:08:41.488Z,10.58
2017-11-24T11:11:09.102Z,10.63
2017-11-24T11:13:36.762Z,10.71
2017-11-24T11:16:04.376Z,10.80
2017-11-24T11:18:32.319Z,10.83
2017-11-24T11:20:59.928Z,10.87
2017-11-24T11:23:27.522Z,10.94
2017-11-24T11:25:55.183Z,11.07
2017-11-24T11:28:22.819Z,11.15
2017-11-24T11:30:50.458Z,11.24
2017-11-24T11:33:18.041Z,11.34
2017-11-24T11:35:47.003Z,11.40
2017-11-24T11:38:14.849Z,11.43
2017-11-24T11:40:46.162Z,11.49
2017-11-24T11:43:16.234Z,11.58
2017-11-24T11:45:43.945Z,11.62
2017-11-24T11:48:11.562Z,11.63
2017-11-24T11:50:39.320Z,11.61
2017-11-24T11:53:09.451Z,11.65
2017-11-24T11:55:37.087Z,11.68
2017-11-24T11:58:04.686Z,11.69
2017-11-24T12:00:32.365Z,11.73
2017-11-24T12:02:59.964Z,11.77
2017-11-24T12:05:27.587Z,11.85
2017-11-24T12:07:55.217Z,11.87
2017-11-24T12:10:26.488Z,11.90
2017-11-24T12:12:54.134Z,11.97
2017-11-24T12:15:21.926Z,12.04
2017-11-24T12:17:55.671Z,12.07
2017-11-24T12:20:23.293Z,12.05
2017-11-24T12:22:50.958Z,12.11
2017-11-24T12:25:18.732Z,12.10
2017-11-24T12:27:46.371Z,12.10
2017-11-24T12:30:13.986Z,12.08
2017-11-24T12:32:41.612Z,12.04
2017-11-24T12:35:10.025Z,12.05
2017-11-24T12:37:37.664Z,12.12
2017-11-24T12:40:05.265Z,12.18
2017-11-24T12:42:33.774Z,12.20
2017-11-24T12:45:01.431Z,12.16
2017-11-24T12:47:29.058Z,12.13
2017-11-24T12:49:56.712Z,12.19
2017-11-24T12:52:24.326Z,12.20
2017-11-24T12:54:55.130Z,12.19
2017-11-24T12:57:23.138Z,12.13
2017-11-24T12:59:50.802Z,12.13
2017-11-24T13:02:18.409Z,12.11
2017-11-24T13:04:46.039Z,12.12
2017-11-24T13:07:16.563Z,12.18
2017-11-24T13:09:47.925Z,12.21
2017-11-24T13:12:15.544Z,12.22
2017-11-24T13:14:43.173Z,12.25
2017-11-24T13:17:17.042Z,12.29
2017-11-24T13:19:44.695Z,12.33
2017-11-24T13:22:12.315Z,12.36
2017-11-24T13:24:39.961Z,12.43
2017-11-24T13:29:43.836Z,12.51
2017-11-24T13:32:11.493Z,12.57
2017-11-24T13:34:39.750Z,12.57
2017-11-24T13:37:07.388Z,12.57
2017-11-24T13:39:35.001Z,12.54
2017-11-24T13:42:02.642Z,12.57
2017-11-24T13:44:30.259Z,12.60
2017-11-24T13:46:57.887Z,12.56
2017-11-24T13:49:25.500Z,12.57
2017-11-24T13:51:53.154Z,12.54
2017-11-24T13:54:20.783Z,12.56
2017-11-24T13:56:48.423Z,12.56
2017-11-24T13:59:16.046Z,12.59
2017-11-24T14:01:43.665Z,12.66
2017-11-24T14:04:17.488Z,12.64
2017-11-24T14:06:45.994Z,12.62
2017-11-24T14:09:13.606Z,12.60
2017-11-24T14:11:41.226Z,12.56
2017-11-24T14:14:08.852Z,12.49
2017-11-24T14:16:36.470Z,12.42
2017-11-24T14:19:04.121Z,12.33
2017-11-24T14:21:31.729Z,12.25
2017-11-24T14:23:59.465Z,12.18
2017-11-24T14:26:27.901Z,12.13
2017-11-24T14:28:55.516Z,12.09
2017-11-24T14:31:23.173Z,12.05
2017-11-24T14:33:50.813Z,11.95
2017-11-24T14:36:18.493Z,11.83
2017-11-24T14:38:46.663Z,11.70
2017-11-24T14:41:17.336Z,11.60
2017-11-24T14:43:45.448Z,11.51
2017-11-24T14:46:13.058Z,11.43
2017-11-24T14:48:40.642Z,11.35
2017-11-24T14:51:08.266Z,11.26
2017-11-24T14:53:35.862Z,11.21
2017-11-24T14:56:03.495Z,11.17
2017-11-24T14:58:31.101Z,11.15
2017-11-24T15:00:58.723Z,11.10
2017-11-24T15:03:26.466Z,11.03
2017-11-24T15:05:54.106Z,10.97
2017-11-24T15:08:21.718Z,10.91
2017-11-24T15:10:49.351Z,10.85
2017-11-24T15:13:16.954Z,10.80
2017-11-24T15:15:45.625Z,10.73
2017-11-24T15:18:13.240Z,10.68
2017-11-24T15:20:40.897Z,10.61
2017-11-24T15:26:19.523Z,10.45
2017-11-24T15:28:47.451Z,10.39
2017-11-24T15:31:20.450Z,10.33
2017-11-24T15:33:48.848Z,10.28
2017-11-24T15:36:20.302Z,10.23
2017-11-24T15:38:48.301Z,10.17
2017-11-24T15:41:19.619Z,10.13
2017-11-24T15:43:47.617Z,10.07
2017-11-24T15:46:15.697Z,10.01
2017-11-24T15:48:43.660Z,9.97
2017-11-24T15:51:11.636Z,9.90
2017-11-24T15:53:39.522Z,9.83
2017-11-24T15:56:08.068Z,9.75
2017-11-24T15:58:36.042Z,9.70
2017-11-24T16:01:04.247Z,9.61
2017-11-24T16:03:32.219Z,9.56
2017-11-24T16:06:00.200Z,9.52
2017-11-24T16:08:29.919Z,9.47
2017-11-24T16:10:58.077Z,9.38
2017-11-24T16:13:31.890Z,9.34
2017-11-24T16:15:59.868Z,9.31
2017-11-24T16:18:29.375Z,9.24
2017-11-24T16:20:57.341Z,9.23
2017-11-24T16:23:25.369Z,9.21
2017-11-24T16:25:54.717Z,9.16
2017-11-24T16:28:25.701Z,9.10
2017-11-24T16:30:55.386Z,9.06
2017-11-24T16:36:07.643Z,8.97
2017-11-24T16:38:35.543Z,8.94
2017-11-24T16:41:03.548Z,8.89
2017-11-24T16:43:41.744Z,8.85
2017-11-24T16:46:10.455Z,8.80
2017-11-24T16:48:38.398Z,8.74
2017-11-24T16:51:07.910Z,8.73
2017-11-24T16:53:38.362Z,8.70
2017-11-24T16:56:45.503Z,8.67
2017-11-24T16:59:15.248Z,8.63
2017-11-24T17:01:43.086Z,8.60
2017-11-24T17:04:12.626Z,8.57
2017-11-24T17:06:40.678Z,8.55
2017-11-24T17:09:08.757Z,8.52
2017-11-24T17:11:36.628Z,8.48
2017-11-24T17:14:04.595Z,8.45
2017-11-24T17:16:34.187Z,8.41
2017-11-24T17:19:02.288Z,8.39
2017-11-24T17:21:31.268Z,8.36
2017-11-24T17:24:00.767Z,8.32
2017-11-24T17:26:28.748Z,8.30
2017-11-24T17:28:58.430Z,8.28
2017-11-24T17:31:26.638Z,8.27
2017-11-24T17:33:55.242Z,8.24
2017-11-24T17:36:23.380Z,8.22
2017-11-24T17:38:51.377Z,8.20
2017-11-24T17:41:19.366Z,8.18
2017-11-24T17:43:50.926Z,8.16
2017-11-24T17:46:18.877Z,8.15
2017-11-24T17:48:46.815Z,8.16
2017-11-24T17:51:21.267Z,8.15
2017-11-24T17:53:49.493Z,8.14
2017-11-24T17:56:20.898Z,8.13
2017-11-24T17:58:50.919Z,8.12
2017-11-24T18:01:19.821Z,8.11
2017-11-24T18:03:49.389Z,8.09
2017-11-24T18:06:20.628Z,8.06
2017-11-24T18:08:48.548Z,8.05
2017-11-24T18:11:16.423Z,8.05
2017-11-24T18:13:47.474Z,8.03
2017-11-24T18:16:15.652Z,8.01
2017-11-24T18:18:48.969Z,7.99
2017-11-24T18:21:20.614Z,7.98
2017-11-24T18:23:48.675Z,7.97
2017-11-24T18:26:16.542Z,7.97
2017-11-24T18:28:44.719Z,7.98
2017-11-24T18:31:12.617Z,7.98
2017-11-24T18:33:46.706Z,7.98
2017-11-24T18:36:21.633Z,7.98
2017-11-24T18:38:56.663Z,7.98
2017-11-24T18:41:24.628Z,7.98
2017-11-24T18:43:52.520Z,7.98
2017-11-24T18:46:20.422Z,7.97
2017-11-24T18:48:48.447Z,7.97
2017-11-24T18:51:16.448Z,7.99
2017-11-24T18:53:44.497Z,8.01
2017-11-24T18:56:12.444Z,8.00
2017-11-24T18:58:53.132Z,7.99
2017-11-24T19:01:21.103Z,7.96
2017-11-24T19:03:49.137Z,7.93
2017-11-24T19:06:17.098Z,7.91
2017-11-24T19:08:53.004Z,7.88
2017-11-24T19:11:25.112Z,7.88
2017-11-24T19:13:53.247Z,7.87
2017-11-24T19:16:21.355Z,7.84
2017-11-24T19:18:49.534Z,7.83
2017-11-24T19:21:20.857Z,7.81
2017-11-24T19:23:48.821Z,7.80
2017-11-24T19:26:16.687Z,7.80
2017-11-24T19:28:47.836Z,7.79
2017-11-24T19:31:15.734Z,7.77
2017-11-24T19:33:43.785Z,7.73
2017-11-24T19:36:12.746Z,7.69
2017-11-24T19:38:40.652Z,7.67
2017-11-24T19:41:08.725Z,7.66
2017-11-24T19:43:36.809Z,7.66
2017-11-24T19:46:04.872Z,7.65
2017-11-24T19:48:40.317Z,7.65
2017-11-24T19:51:08.287Z,7.61
2017-11-24T19:53:36.225Z,7.57
2017-11-24T19:56:04.391Z,7.57
2017-11-24T19:58:32.418Z,7.55
2017-11-24T20:01:00.487Z,7.53
2017-11-24T20:03:30.266Z,7.53
2017-11-24T20:05:59.601Z,7.52
2017-11-24T20:08:40.880Z,7.50
2017-11-24T20:11:09.061Z,7.49
2017-11-24T20:13:38.644Z,7.48
2017-11-24T20:16:06.643Z,7.48
2017-11-24T20:18:34.617Z,7.48
2017-11-24T20:21:02.690Z,7.46
2017-11-24T20:23:30.760Z,7.45
2017-11-24T20:26:00.672Z,7.44
2017-11-24T20:28:29.266Z,7.45
2017-11-24T20:30:57.352Z,7.46
2017-11-24T20:33:26.474Z,7.46
2017-11-24T20:35:57.426Z,7.46
2017-11-24T20:38:26.636Z,7.46
2017-11-24T20:41:05.452Z,7.44
2017-11-24T20:43:33.814Z,7.43
2017-11-24T20:46:01.863Z,7.43
2017-11-24T20:48:29.966Z,7.44
2017-11-24T20:50:57.907Z,7.44
2017-11-24T20:53:26.018Z,7.44
2017-11-24T20:55:54.042Z,7.44
2017-11-24T20:58:22.925Z,7.45
2017-11-24T21:00:50.993Z,7.46
2017-11-24T21:03:19.002Z,7.46
2017-11-24T21:05:53.370Z,7.46
2017-11-24T21:08:21.396Z,7.48
2017-11-24T21:10:49.400Z,7.48
2017-11-24T21:13:20.564Z,7.47
2017-11-24T21:15:48.804Z,7.46
2017-11-24T21:18:16.880Z,7.47
2017-11-24T21:20:46.583Z,7.47
2017-11-24T21:23:22.031Z,7.46
2017-11-24T21:25:50.092Z,7.48
2017-11-24T21:28:17.974Z,7.47
2017-11-24T21:30:46.016Z,7.47
2017-11-24T21:33:14.016Z,7.46
2017-11-24T21:35:42.203Z,7.47
2017-11-24T21:38:10.122Z,7.46
2017-11-24T21:40:38.146Z,7.45
2017-11-24T21:43:06.216Z,7.44
2017-11-24T21:45:34.290Z,7.42
2017-11-24T21:48:02.256Z,7.42
2017-11-24T21:50:30.341Z,7.42
2017-11-24T21:52:58.422Z,7.40
2017-11-24T21:55:26.379Z,7.41
2017-11-24T21:57:54.357Z,7.41
2017-11-24T22:00:22.323Z,7.40
2017-11-24T22:02:52.968Z,7.39
2017-11-24T22:05:22.448Z,7.38
2017-11-24T22:07:51.350Z,7.38
2017-11-24T22:10:19.291Z,7.37
2017-11-24T22:12:47.203Z,7.37
2017-11-24T22:15:17.541Z,7.37
2017-11-24T22:17:45.715Z,7.37
2017-11-24T22:20:14.909Z,7.34
2017-11-24T22:22:43.085Z,7.32
2017-11-24T22:25:11.000Z,7.33
2017-11-24T22:27:39.031Z,7.34
2017-11-24T22:32:41.933Z,7.34
2017-11-24T22:35:15.993Z,7.34
2017-11-24T22:37:43.811Z,7.33
2017-11-24T22:40:14.241Z,7.33
2017-11-24T22:42:42.218Z,7.33
2017-11-24T22:45:12.854Z,7.32
2017-11-24T22:47:40.679Z,7.33
2017-11-24T22:50:08.694Z,7.32
2017-11-24T22:52:36.579Z,7.32
2017-11-24T22:55:04.439Z,7.31
2017-11-24T22:57:34.812Z,7.29
2017-11-24T23:00:02.853Z,7.28
2017-11-24T23:02:30.756Z,7.25
2017-11-24T23:04:58.688Z,7.25
2017-11-24T23:07:26.666Z,7.24
2017-11-24T23:09:54.646Z,7.22
2017-11-24T23:12:22.748Z,7.22
2017-11-24T23:14:50.644Z,7.21
2017-11-24T23:17:18.592Z,7.21
2017-11-24T23:19:46.518Z,7.21
2017-11-24T23:22:14.492Z,7.21
2017-11-24T23:24:44.719Z,7.20
2017-11-24T23:27:18.511Z,7.18
2017-11-24T23:29:46.490Z,7.18
2017-11-24T23:32:14.381Z,7.18
2017-11-24T23:34:42.332Z,7.16
2017-11-24T23:37:16.036Z,7.17
2017-11-24T23:39:47.094Z,7.16
2017-11-24T23:42:15.051Z,7.16
2017-11-24T23:44:43.030Z,7.15
2017-11-24T23:47:10.898Z,7.15
2017-11-24T23:49:41.125Z,7.15
2017-11-24T23:52:10.735Z,7.12
2017-11-24T23:54:45.028Z,7.13
2017-11-24T23:57:13.023Z,7.12
2017-11-24T23:59:40.992Z,7.10
